createdAt,value
2023-03-26T00:02:14.694Z,99939.81
2023-03-26T00:04:43.764Z,99943.69
2023-03-26T00:07:12.899Z,99953.53
2023-03-26T00:09:41.997Z,99948.06
2023-03-26T00:12:11.196Z,99951.34
2023-03-26T00:14:40.844Z,99964.78
2023-03-26T00:17:11.327Z,99962.56
2023-03-26T00:19:40.397Z,99952.25
2023-03-26T00:22:11.131Z,99974.28
2023-03-26T00:24:40.158Z,99974.50
2023-03-26T00:27:09.183Z,99972.06
2023-03-26T00:29:39.868Z,99977.00
2023-03-26T00:32:10.324Z,99980.84
2023-03-26T00:34:41.289Z,99976.94
2023-03-26T00:37:12.452Z,99987.25
2023-03-26T00:39:42.687Z,99993.59
2023-03-26T00:42:14.740Z,99987.44
2023-03-26T00:44:43.834Z,99988.09
2023-03-26T00:47:14.218Z,99995.38
2023-03-26T00:49:43.295Z,99992.09
2023-03-26T00:52:12.295Z,99993.88
2023-03-26T00:54:41.590Z,100002.81
2023-03-26T00:57:11.897Z,100001.69
2023-03-26T00:59:42.213Z,99994.16
2023-03-26T01:02:16.953Z,99998.38
2023-03-26T01:04:48.130Z,99997.81
2023-03-26T01:07:21.694Z,100008.81
2023-03-26T01:09:52.351Z,100006.34
2023-03-26T01:12:23.445Z,100013.41
2023-03-26T01:14:56.575Z,100015.00
2023-03-26T01:17:34.321Z,100017.25
2023-03-26T01:20:14.894Z,100022.13
2023-03-26T01:22:46.830Z,100017.63
2023-03-26T01:25:17.639Z,100030.59
2023-03-26T01:27:50.344Z,100024.81
2023-03-26T01:30:25.764Z,100033.09
2023-03-26T01:33:03.786Z,100018.22
2023-03-26T01:35:44.786Z,100031.06
2023-03-26T01:38:23.963Z,100032.09
2023-03-26T01:41:00.146Z,100043.63
2023-03-26T01:43:37.348Z,100049.41
2023-03-26T01:46:10.308Z,100051.81
2023-03-26T01:48:43.484Z,100052.31
2023-03-26T01:51:13.552Z,100055.16
2023-03-26T01:53:45.979Z,100050.09
2023-03-26T01:56:26.600Z,100054.59
2023-03-26T01:59:11.132Z,100057.72
2023-03-26T02:01:47.802Z,100061.19
2023-03-26T02:04:26.290Z,100060.81
2023-03-26T02:07:02.033Z,100063.34
2023-03-26T02:09:36.140Z,100058.47
2023-03-26T02:12:09.407Z,100064.63
2023-03-26T02:14:38.609Z,100062.16
2023-03-26T02:17:10.065Z,100071.41
2023-03-26T02:19:41.891Z,100066.84
2023-03-26T02:22:15.440Z,100071.19
2023-03-26T02:24:46.668Z,100069.84
2023-03-26T02:27:18.351Z,100070.66
2023-03-26T02:29:47.957Z,100062.88
2023-03-26T02:32:19.453Z,100064.28
2023-03-26T02:34:51.252Z,100059.91
2023-03-26T02:37:20.442Z,100064.78
2023-03-26T02:39:54.055Z,100055.19
2023-03-26T02:42:32.292Z,100059.47
2023-03-26T02:45:01.475Z,100070.91
2023-03-26T02:47:53.505Z,100071.38
2023-03-26T02:50:42.898Z,100063.47
2023-03-26T02:53:30.635Z,100068.69
2023-03-26T02:56:18.647Z,100058.91
2023-03-26T02:59:02.973Z,100074.44
2023-03-26T03:01:34.873Z,100071.88
2023-03-26T03:04:05.071Z,100076.75
2023-03-26T03:06:39.138Z,100072.94
2023-03-26T03:09:09.561Z,100084.41
2023-03-26T03:11:39.566Z,100072.94
2023-03-26T03:14:11.121Z,100080.91
2023-03-26T03:16:41.106Z,100069.78
2023-03-26T03:19:14.078Z,100077.47
2023-03-26T03:21:43.663Z,100074.75
2023-03-26T03:24:13.791Z,100073.56
2023-03-26T03:26:47.454Z,100072.72
2023-03-26T03:29:31.231Z,100075.13
2023-03-26T03:32:09.043Z,100079.72
2023-03-26T03:34:44.120Z,100075.34
2023-03-26T03:37:13.377Z,100079.84
2023-03-26T03:39:49.242Z,100078.66
2023-03-26T03:42:21.438Z,100080.69
2023-03-26T03:44:54.296Z,100081.63
2023-03-26T03:47:45.906Z,100088.84
2023-03-26T03:50:16.716Z,100086.66
2023-03-26T03:53:01.058Z,100090.00
2023-03-26T03:55:30.275Z,100084.47
2023-03-26T03:57:59.931Z,100083.63
2023-03-26T04:00:32.294Z,100087.50
2023-03-26T04:03:33.071Z,100080.53
2023-03-26T04:06:06.809Z,100079.00
2023-03-26T04:08:36.294Z,100084.22
2023-03-26T04:11:07.616Z,100085.75
2023-03-26T04:14:04.111Z,100074.25
2023-03-26T04:16:54.932Z,100062.31
2023-03-26T04:19:24.800Z,100068.09
2023-03-26T04:21:54.386Z,100064.91
2023-03-26T04:24:24.506Z,100066.00
2023-03-26T04:27:16.984Z,100067.66
2023-03-26T04:29:50.611Z,100059.38
2023-03-26T04:32:29.802Z,100061.63
2023-03-26T04:35:00.483Z,100068.50
2023-03-26T04:37:39.554Z,100068.22
2023-03-26T04:40:23.502Z,100069.19
2023-03-26T04:43:03.260Z,100063.66
2023-03-26T04:45:52.277Z,100063.47
2023-03-26T04:48:24.395Z,100059.22
2023-03-26T04:50:53.777Z,100066.34
2023-03-26T04:53:24.309Z,100069.88
2023-03-26T04:56:05.140Z,100069.97
2023-03-26T04:58:56.856Z,100072.00
2023-03-26T05:01:28.303Z,100078.03
2023-03-26T05:03:59.664Z,100071.41
2023-03-26T05:06:30.492Z,100069.72
2023-03-26T05:09:00.119Z,100068.78
2023-03-26T05:11:51.936Z,100065.34
2023-03-26T05:14:21.150Z,100068.06
2023-03-26T05:16:53.167Z,100075.41
2023-03-26T05:19:23.692Z,100077.28
2023-03-26T05:21:52.753Z,100075.28
2023-03-26T05:24:21.888Z,100077.06
2023-03-26T05:26:51.002Z,100076.00
2023-03-26T05:29:25.128Z,100082.38
2023-03-26T05:31:56.246Z,100083.13
2023-03-26T05:34:27.199Z,100079.69
2023-03-26T05:36:57.328Z,100084.41
2023-03-26T05:39:41.174Z,100092.44
2023-03-26T05:42:28.966Z,100084.63
2023-03-26T05:45:22.198Z,100095.66
2023-03-26T05:47:54.150Z,100091.53
2023-03-26T05:50:27.052Z,100092.34
2023-03-26T05:53:01.319Z,100097.56
2023-03-26T05:56:02.158Z,100090.81
2023-03-26T05:58:51.979Z,100100.25
2023-03-26T06:01:42.859Z,100097.34
2023-03-26T06:04:16.171Z,100096.13
2023-03-26T06:07:16.691Z,100108.00
2023-03-26T06:09:50.734Z,100096.81
2023-03-26T06:12:19.882Z,100112.81
2023-03-26T06:14:49.173Z,100107.97
2023-03-26T06:17:25.906Z,100103.94
2023-03-26T06:20:15.716Z,100104.56
2023-03-26T06:22:49.306Z,100105.97
2023-03-26T06:25:23.325Z,100109.31
2023-03-26T06:28:01.705Z,100105.03
2023-03-26T06:30:51.480Z,100112.13
2023-03-26T06:33:38.775Z,100110.22
2023-03-26T06:36:08.508Z,100118.66
2023-03-26T06:38:38.985Z,100126.81
2023-03-26T06:41:09.625Z,100124.69
2023-03-26T06:43:39.075Z,100129.19
2023-03-26T06:46:28.448Z,100124.66
2023-03-26T06:49:16.349Z,100131.06
2023-03-26T06:52:06.812Z,100126.72
2023-03-26T06:54:50.985Z,100133.28
2023-03-26T06:57:50.672Z,100133.63
2023-03-26T07:00:48.126Z,100132.22
2023-03-26T07:03:35.906Z,100139.34
2023-03-26T07:06:23.525Z,100133.19
2023-03-26T07:09:11.232Z,100135.75
2023-03-26T07:12:01.159Z,100133.66
2023-03-26T07:14:50.509Z,100136.25
2023-03-26T07:17:40.000Z,100137.06
2023-03-26T07:20:17.083Z,100128.22
2023-03-26T07:22:48.400Z,100131.75
2023-03-26T07:25:41.101Z,100130.72
2023-03-26T07:28:30.679Z,100126.06
2023-03-26T07:31:29.760Z,100126.91
2023-03-26T07:34:26.382Z,100130.81
2023-03-26T07:37:16.474Z,100140.03
2023-03-26T07:40:36.159Z,100141.00
2023-03-26T07:43:34.599Z,100138.84
2023-03-26T07:46:30.726Z,100139.94
2023-03-26T07:49:21.479Z,100141.59
2023-03-26T07:52:04.090Z,100129.94
2023-03-26T07:55:06.700Z,100139.16
2023-03-26T07:58:05.201Z,100133.63
2023-03-26T08:00:54.158Z,100136.72
2023-03-26T08:03:52.412Z,100139.00
2023-03-26T08:06:54.268Z,100143.91
2023-03-26T08:10:00.300Z,100139.19
2023-03-26T08:12:53.708Z,100138.69
2023-03-26T08:15:30.653Z,100139.78
2023-03-26T08:18:06.332Z,100138.41
2023-03-26T08:20:43.560Z,100140.34
2023-03-26T08:23:21.891Z,100144.56
2023-03-26T08:26:02.281Z,100138.72
2023-03-26T08:28:42.635Z,100141.78
2023-03-26T08:31:15.297Z,100138.16
2023-03-26T08:33:45.944Z,100143.56
2023-03-26T08:36:15.013Z,100138.59
2023-03-26T08:38:45.746Z,100147.88
2023-03-26T08:41:46.223Z,100145.41
2023-03-26T08:44:51.218Z,100142.72
2023-03-26T08:47:47.480Z,100147.00
2023-03-26T08:51:04.876Z,100148.47
2023-03-26T08:54:14.517Z,100145.03
2023-03-26T08:56:54.745Z,100143.66
2023-03-26T08:59:56.655Z,100144.41
2023-03-26T09:02:53.729Z,100140.09
2023-03-26T09:05:46.492Z,100142.81
2023-03-26T09:08:53.837Z,100136.69
2023-03-26T09:12:02.852Z,100129.88
2023-03-26T09:15:03.831Z,100130.38
2023-03-26T09:17:58.070Z,100135.16
2023-03-26T09:21:12.317Z,100129.25
2023-03-26T09:24:19.910Z,100132.78
2023-03-26T09:27:00.390Z,100144.78
2023-03-26T09:30:12.128Z,100137.06
2023-03-26T09:33:18.478Z,100130.06
2023-03-26T09:35:58.285Z,100134.91
2023-03-26T09:38:41.539Z,100138.22
2023-03-26T09:41:17.727Z,100131.69
2023-03-26T09:44:18.153Z,100142.06
2023-03-26T09:47:01.592Z,100141.28
2023-03-26T09:49:52.644Z,100146.53
2023-03-26T09:52:46.324Z,100147.44
2023-03-26T09:55:43.481Z,100137.22
2023-03-26T09:58:34.248Z,100132.25
2023-03-26T10:01:13.053Z,100129.56
2023-03-26T10:03:56.373Z,100140.13
2023-03-26T10:06:54.431Z,100152.75
2023-03-26T10:09:37.137Z,100151.19
2023-03-26T10:12:24.995Z,100154.22
2023-03-26T10:15:04.980Z,100150.59
2023-03-26T10:17:48.097Z,100158.81
2023-03-26T10:20:33.087Z,100162.31
2023-03-26T10:23:15.857Z,100167.47
2023-03-26T10:26:04.260Z,100159.28
2023-03-26T10:28:59.476Z,100162.13
2023-03-26T10:31:45.336Z,100166.97
2023-03-26T10:34:44.832Z,100155.00
2023-03-26T10:37:22.949Z,100145.91
2023-03-26T10:40:15.429Z,100148.16
2023-03-26T10:43:09.293Z,100147.97
2023-03-26T10:46:15.661Z,100140.06
2023-03-26T10:49:08.727Z,100141.31
2023-03-26T10:51:55.932Z,100159.72
2023-03-26T10:54:37.948Z,100158.16
2023-03-26T10:57:19.496Z,100156.88
2023-03-26T10:59:48.654Z,100154.41
2023-03-26T11:02:30.470Z,100153.72
2023-03-26T11:05:21.162Z,100150.66
2023-03-26T11:07:58.746Z,100160.72
2023-03-26T11:10:40.493Z,100153.28
2023-03-26T11:13:20.553Z,100152.94
2023-03-26T11:15:55.240Z,100157.63
2023-03-26T11:18:33.138Z,100156.06
2023-03-26T11:21:19.403Z,100148.91
2023-03-26T11:24:05.059Z,100152.28
2023-03-26T11:26:44.712Z,100146.06
2023-03-26T11:29:34.303Z,100156.88
2023-03-26T11:32:10.615Z,100154.94
2023-03-26T11:34:43.470Z,100157.75
2023-03-26T11:37:19.711Z,100150.00
2023-03-26T11:39:55.884Z,100148.47
2023-03-26T11:42:26.549Z,100144.88
2023-03-26T11:45:00.170Z,100151.91
2023-03-26T11:47:36.303Z,100148.34
2023-03-26T11:50:08.280Z,100147.41
2023-03-26T11:52:37.466Z,100143.19
2023-03-26T11:55:12.421Z,100144.56
2023-03-26T11:57:44.049Z,100146.53
2023-03-26T12:00:19.390Z,100140.31
2023-03-26T12:02:49.868Z,100133.53
2023-03-26T12:05:21.596Z,100133.09
2023-03-26T12:07:57.093Z,100140.59
2023-03-26T12:10:34.805Z,100139.00
2023-03-26T12:13:15.594Z,100134.44
2023-03-26T12:15:45.469Z,100135.13
2023-03-26T12:18:25.688Z,100134.16
2023-03-26T12:21:08.458Z,100142.50
2023-03-26T12:23:51.242Z,100139.03
2023-03-26T12:26:31.650Z,100132.94
2023-03-26T12:29:09.297Z,100129.53
2023-03-26T12:31:56.348Z,100128.66
2023-03-26T12:34:34.821Z,100129.16
2023-03-26T12:37:06.061Z,100121.16
2023-03-26T12:40:09.016Z,100131.28
2023-03-26T12:44:44.732Z,100125.63
2023-03-26T12:45:24.330Z,100127.53
2023-03-26T12:48:03.051Z,100128.09
2023-03-26T12:50:54.717Z,100134.69
2023-03-26T12:53:45.123Z,100135.91
2023-03-26T12:56:21.834Z,100130.06
2023-03-26T12:59:21.733Z,100129.94
2023-03-26T13:02:02.592Z,100138.19
2023-03-26T13:05:02.702Z,100140.50
2023-03-26T13:08:01.373Z,100130.66
2023-03-26T13:10:50.467Z,100124.88
2023-03-26T13:13:47.757Z,100122.28
2023-03-26T13:16:25.763Z,100118.25
2023-03-26T13:18:57.725Z,100120.25
2023-03-26T13:21:38.055Z,100120.31
2023-03-26T13:24:16.671Z,100125.00
2023-03-26T13:27:00.620Z,100116.13
2023-03-26T13:29:40.605Z,100115.97
2023-03-26T13:32:18.495Z,100111.84
2023-03-26T13:35:05.414Z,100112.06
2023-03-26T13:37:40.859Z,100113.53
2023-03-26T13:40:25.261Z,100123.28
2023-03-26T13:43:11.979Z,100112.75
2023-03-26T13:45:55.233Z,100110.22
2023-03-26T13:48:29.907Z,100117.44
2023-03-26T13:51:06.053Z,100112.66
2023-03-26T13:53:42.626Z,100111.03
2023-03-26T13:56:16.249Z,100111.72
2023-03-26T13:58:51.600Z,100116.25
2023-03-26T14:01:35.127Z,100113.53
2023-03-26T14:04:11.760Z,100113.00
2023-03-26T14:06:48.728Z,100118.91
2023-03-26T14:09:25.216Z,100116.03
2023-03-26T14:12:21.222Z,100118.03
2023-03-26T14:14:56.101Z,100115.38
2023-03-26T14:17:29.786Z,100115.94
2023-03-26T14:20:41.475Z,100128.53
2023-03-26T14:23:44.098Z,100121.69
2023-03-26T14:26:28.216Z,100117.78
2023-03-26T14:29:26.952Z,100128.72
2023-03-26T14:32:24.366Z,100128.53
2023-03-26T14:35:09.336Z,100127.91
2023-03-26T14:38:04.677Z,100140.88
2023-03-26T14:40:56.225Z,100132.69
2023-03-26T14:44:00.509Z,100126.81
2023-03-26T14:46:47.403Z,100116.22
2023-03-26T14:49:39.792Z,100120.88
2023-03-26T14:52:14.720Z,100132.00
2023-03-26T14:54:50.875Z,100128.28
2023-03-26T14:58:03.777Z,100130.56
2023-03-26T15:01:04.487Z,100136.84
2023-03-26T15:04:15.798Z,100126.63
2023-03-26T15:07:33.989Z,100132.06
2023-03-26T15:10:19.414Z,100138.88
2023-03-26T15:13:10.019Z,100145.59
2023-03-26T15:16:08.332Z,100142.50
2023-03-26T15:19:28.294Z,100132.03
2023-03-26T15:22:48.519Z,100130.09
2023-03-26T15:25:48.699Z,100138.97
2023-03-26T15:28:49.846Z,100133.38
2023-03-26T15:31:48.358Z,100131.81
2023-03-26T15:34:49.952Z,100131.16
2023-03-26T15:37:45.038Z,100136.41
2023-03-26T15:40:46.197Z,100135.88
2023-03-26T15:43:16.711Z,100139.72
2023-03-26T15:45:53.743Z,100147.91
2023-03-26T15:48:35.610Z,100148.03
2023-03-26T15:51:16.991Z,100151.50
2023-03-26T15:53:55.786Z,100156.00
2023-03-26T15:56:40.730Z,100159.19
2023-03-26T15:59:25.878Z,100165.84
2023-03-26T16:02:06.606Z,100155.81
2023-03-26T16:04:50.679Z,100171.50
2023-03-26T16:07:42.233Z,100164.59
2023-03-26T16:10:28.009Z,100167.16
2023-03-26T16:13:23.995Z,100174.31
2023-03-26T16:15:57.977Z,100173.75
2023-03-26T16:18:32.160Z,100167.09
2023-03-26T16:21:40.271Z,100170.97
2023-03-26T16:24:24.356Z,100168.59
2023-03-26T16:27:09.186Z,100175.78
2023-03-26T16:30:15.300Z,100172.38
2023-03-26T16:32:48.824Z,100182.28
2023-03-26T16:35:51.899Z,100182.66
2023-03-26T16:38:27.248Z,100186.66
2023-03-26T16:41:06.992Z,100181.00
2023-03-26T16:43:51.131Z,100183.53
2023-03-26T16:46:32.396Z,100190.97
2023-03-26T16:49:10.625Z,100192.88
2023-03-26T16:52:01.423Z,100199.91
2023-03-26T16:54:43.123Z,100200.06
2023-03-26T16:57:26.050Z,100197.13
2023-03-26T17:00:28.283Z,100197.81
2023-03-26T17:03:08.052Z,100214.72
2023-03-26T17:05:59.093Z,100213.72
2023-03-26T17:08:37.930Z,100218.63
2023-03-26T17:11:20.601Z,100224.56
2023-03-26T17:14:03.553Z,100217.75
2023-03-26T17:16:36.768Z,100225.34
2023-03-26T17:19:19.045Z,100233.00
2023-03-26T17:21:56.425Z,100238.34
2023-03-26T17:24:35.616Z,100240.88
2023-03-26T17:27:34.719Z,100239.31
2023-03-26T17:30:26.487Z,100241.47
2023-03-26T17:32:59.905Z,100242.31
2023-03-26T17:35:44.139Z,100250.38
2023-03-26T17:38:46.378Z,100252.63
2023-03-26T17:41:38.128Z,100260.53
2023-03-26T17:44:37.141Z,100260.72
2023-03-26T17:47:14.232Z,100271.69
2023-03-26T17:49:45.334Z,100273.91
2023-03-26T17:52:21.937Z,100274.31
2023-03-26T17:54:55.305Z,100274.59
2023-03-26T17:57:27.878Z,100277.25
2023-03-26T18:00:01.711Z,100282.38
2023-03-26T18:02:44.230Z,100289.28
2023-03-26T18:05:17.223Z,100282.28
2023-03-26T18:08:23.945Z,100288.91
2023-03-26T18:11:26.223Z,100296.31
2023-03-26T18:14:37.172Z,100299.31
2023-03-26T18:17:08.235Z,100305.13
2023-03-26T18:19:49.057Z,100311.53
2023-03-26T18:22:23.086Z,100317.97
2023-03-26T18:24:55.073Z,100317.25
2023-03-26T18:27:24.985Z,100324.63
2023-03-26T18:30:03.292Z,100323.09
2023-03-26T18:32:36.978Z,100324.31
2023-03-26T18:35:20.138Z,100329.97
2023-03-26T18:37:51.006Z,100334.84
2023-03-26T18:40:22.306Z,100342.19
2023-03-26T18:42:53.426Z,100356.41
2023-03-26T18:45:29.744Z,100350.25
2023-03-26T18:48:03.910Z,100355.47
2023-03-26T18:50:38.517Z,100361.28
2023-03-26T18:53:15.836Z,100361.38
2023-03-26T18:55:46.082Z,100362.56
2023-03-26T18:58:26.724Z,100367.03
2023-03-26T19:01:00.169Z,100375.00
2023-03-26T19:03:35.453Z,100383.72
2023-03-26T19:06:10.467Z,100379.34
2023-03-26T19:08:42.545Z,100385.59
2023-03-26T19:11:17.064Z,100390.09
2023-03-26T19:13:59.513Z,100391.88
2023-03-26T19:16:33.949Z,100393.97
2023-03-26T19:19:08.931Z,100401.81
2023-03-26T19:21:41.398Z,100401.47
2023-03-26T19:24:12.557Z,100390.66
2023-03-26T19:26:42.457Z,100397.50
2023-03-26T19:29:15.600Z,100403.69
2023-03-26T19:31:45.295Z,100398.53
2023-03-26T19:34:32.300Z,100406.03
2023-03-26T19:37:04.215Z,100407.56
2023-03-26T19:39:41.600Z,100417.69
2023-03-26T19:42:16.244Z,100430.06
2023-03-26T19:44:45.653Z,100422.03
2023-03-26T19:47:22.069Z,100426.47
2023-03-26T19:49:57.839Z,100429.59
2023-03-26T19:52:29.536Z,100440.00
2023-03-26T19:55:02.868Z,100439.22
2023-03-26T19:57:34.669Z,100447.44
2023-03-26T20:00:13.184Z,100455.69
2023-03-26T20:02:43.011Z,100451.03
2023-03-26T20:05:22.943Z,100448.50
2023-03-26T20:07:52.472Z,100460.50
2023-03-26T20:10:22.117Z,100461.00
2023-03-26T20:12:51.160Z,100464.25
2023-03-26T20:15:23.295Z,100465.06
2023-03-26T20:17:54.405Z,100464.25
2023-03-26T20:20:27.143Z,100463.09
2023-03-26T20:22:56.387Z,100467.16
2023-03-26T20:25:31.151Z,100473.91
2023-03-26T20:28:00.808Z,100484.00
2023-03-26T20:33:13.046Z,100489.50
2023-03-26T20:35:44.707Z,100483.97
2023-03-26T20:38:13.808Z,100495.81
2023-03-26T20:40:44.739Z,100495.28
2023-03-26T20:43:18.224Z,100497.22
2023-03-26T20:45:48.379Z,100492.22
2023-03-26T20:48:17.576Z,100497.91
2023-03-26T20:51:01.611Z,100492.22
2023-03-26T20:53:30.853Z,100509.94
2023-03-26T20:55:59.956Z,100512.53
2023-03-26T20:58:30.856Z,100517.81
2023-03-26T21:01:02.711Z,100517.38
2023-03-26T21:03:31.882Z,100516.53
2023-03-26T21:06:04.449Z,100520.66
2023-03-26T21:08:37.029Z,100528.94
2023-03-26T21:11:26.670Z,100524.25
2023-03-26T21:14:01.853Z,100539.38
2023-03-26T21:16:32.306Z,100530.41
2023-03-26T21:19:02.946Z,100536.63
2023-03-26T21:21:48.124Z,100539.22
2023-03-26T21:24:25.431Z,100548.13
2023-03-26T21:27:01.350Z,100542.03
2023-03-26T21:29:30.956Z,100543.69
2023-03-26T21:32:00.508Z,100550.44
2023-03-26T21:34:32.848Z,100557.59
2023-03-26T21:37:03.994Z,100563.41
2023-03-26T21:39:33.929Z,100565.47
2023-03-26T21:42:04.772Z,100571.66
2023-03-26T21:44:35.515Z,100567.41
2023-03-26T21:47:09.197Z,100569.50
2023-03-26T21:49:39.502Z,100579.72
2023-03-26T21:52:15.246Z,100574.63
2023-03-26T21:54:45.111Z,100589.31
2023-03-26T21:57:35.934Z,100581.25
2023-03-26T22:00:14.261Z,100591.72
2023-03-26T22:02:58.728Z,100589.13
2023-03-26T22:05:38.011Z,100594.13
2023-03-26T22:08:12.182Z,100596.59
2023-03-26T22:10:41.273Z,100605.28
2023-03-26T22:13:10.287Z,100604.16
2023-03-26T22:15:39.317Z,100608.97
2023-03-26T22:18:08.600Z,100616.19
2023-03-26T22:20:37.746Z,100619.13
2023-03-26T22:23:09.188Z,100612.81
2023-03-26T22:25:38.531Z,100621.81
2023-03-26T22:28:07.800Z,100626.00
2023-03-26T22:30:36.847Z,100632.22
2023-03-26T22:33:08.236Z,100637.94
2023-03-26T22:35:37.510Z,100634.88
2023-03-26T22:38:07.917Z,100630.84
2023-03-26T22:40:36.997Z,100648.97
2023-03-26T22:43:06.317Z,100656.84
2023-03-26T22:45:37.486Z,100661.13
2023-03-26T22:48:06.805Z,100669.56
2023-03-26T22:50:35.872Z,100657.78
2023-03-26T22:53:04.849Z,100668.47
2023-03-26T22:55:35.462Z,100673.25
2023-03-26T22:58:04.600Z,100674.47
2023-03-26T23:00:34.730Z,100667.47
2023-03-26T23:03:04.432Z,100681.16
2023-03-26T23:05:33.739Z,100675.16
2023-03-26T23:08:02.723Z,100680.91
2023-03-26T23:10:31.801Z,100682.66
2023-03-26T23:13:02.603Z,100684.41
2023-03-26T23:15:31.642Z,100686.91
2023-03-26T23:18:01.852Z,100688.16
2023-03-26T23:20:37.492Z,100693.28
2023-03-26T23:23:06.720Z,100694.59
2023-03-26T23:25:35.815Z,100694.91
2023-03-26T23:28:06.368Z,100704.16
2023-03-26T23:30:35.599Z,100701.38
2023-03-26T23:33:04.730Z,100707.78
2023-03-26T23:35:33.937Z,100716.84
2023-03-26T23:38:06.817Z,100706.50
2023-03-26T23:40:35.899Z,100718.38
2023-03-26T23:43:06.290Z,100726.91
2023-03-26T23:45:35.439Z,100720.84
2023-03-26T23:48:04.811Z,100724.22
2023-03-26T23:50:37.670Z,100717.63
2023-03-26T23:53:07.036Z,100720.38
2023-03-26T23:55:36.434Z,100723.72
2023-03-26T23:58:06.927Z,100728.16
